sensor_id;sensor_type;location;lat;lon;timestamp;pressure;altitude;pressure_sealevel;temperature;humidity
42067;BME280;27734;47.028;28.820;2023-02-17T00:00:11;100916.91;;;2.07;60.35
42067;BME280;27734;47.028;28.820;2023-02-17T00:03:03;100913.86;;;2.01;59.52
42067;BME280;27734;47.028;28.820;2023-02-17T00:05:34;100913.62;;;1.97;59.95
42067;BME280;27734;47.028;28.820;2023-02-17T00:08:08;100907.44;;;1.95;59.69
42067;BME280;27734;47.028;28.820;2023-02-17T00:10:40;100908.09;;;1.93;60.70
42067;BME280;27734;47.028;28.820;2023-02-17T00:13:11;100907.86;;;1.90;59.87
42067;BME280;27734;47.028;28.820;2023-02-17T00:15:43;100913.72;;;1.87;60.63
42067;BME280;27734;47.028;28.820;2023-02-17T00:18:14;100914.38;;;1.85;60.49
42067;BME280;27734;47.028;28.820;2023-02-17T00:20:45;100908.07;;;1.81;60.18
42067;BME280;27734;47.028;28.820;2023-02-17T00:23:16;100908.48;;;1.75;60.09
42067;BME280;27734;47.028;28.820;2023-02-17T00:25:48;100906.55;;;1.73;60.82
42067;BME280;27734;47.028;28.820;2023-02-17T00:28:19;100909.14;;;1.73;60.73
42067;BME280;27734;47.028;28.820;2023-02-17T00:30:52;100904.77;;;1.72;60.88
42067;BME280;27734;47.028;28.820;2023-02-17T00:33:24;100900.25;;;1.69;60.96
42067;BME280;27734;47.028;28.820;2023-02-17T00:35:55;100907.77;;;1.66;60.67
42067;BME280;27734;47.028;28.820;2023-02-17T00:38:27;100906.41;;;1.59;60.32
42067;BME280;27734;47.028;28.820;2023-02-17T00:40:58;100902.33;;;1.51;60.67
42067;BME280;27734;47.028;28.820;2023-02-17T00:43:30;100896.91;;;1.48;60.80
42067;BME280;27734;47.028;28.820;2023-02-17T00:46:01;100900.92;;;1.44;60.69
42067;BME280;27734;47.028;28.820;2023-02-17T00:48:33;100895.38;;;1.40;61.04
42067;BME280;27734;47.028;28.820;2023-02-17T00:51:05;100893.48;;;1.37;60.85
42067;BME280;27734;47.028;28.820;2023-02-17T00:53:37;100897.73;;;1.37;60.68
42067;BME280;27734;47.028;28.820;2023-02-17T00:56:10;100912.47;;;1.38;61.91
42067;BME280;27734;47.028;28.820;2023-02-17T00:58:41;100901.52;;;1.30;61.23
42067;BME280;27734;47.028;28.820;2023-02-17T01:01:13;100898.45;;;1.24;61.22
42067;BME280;27734;47.028;28.820;2023-02-17T01:03:44;100899.47;;;1.26;60.97
42067;BME280;27734;47.028;28.820;2023-02-17T01:06:20;100892.52;;;1.25;61.28
42067;BME280;27734;47.028;28.820;2023-02-17T01:08:52;100892.52;;;1.25;61.57
42067;BME280;27734;47.028;28.820;2023-02-17T01:11:25;100895.63;;;1.21;62.14
42067;BME280;27734;47.028;28.820;2023-02-17T01:13:57;100888.39;;;1.17;62.77
42067;BME280;27734;47.028;28.820;2023-02-17T01:16:31;100891.54;;;1.13;62.49
42067;BME280;27734;47.028;28.820;2023-02-17T01:19:02;100890.37;;;1.09;64.92
42067;BME280;27734;47.028;28.820;2023-02-17T01:21:34;100892.83;;;1.07;63.00
42067;BME280;27734;47.028;28.820;2023-02-17T01:24:08;100890.80;;;1.03;62.77
42067;BME280;27734;47.028;28.820;2023-02-17T01:26:41;100883.57;;;0.99;62.77
42067;BME280;27734;47.028;28.820;2023-02-17T01:29:12;100885.14;;;0.97;63.50
42067;BME280;27734;47.028;28.820;2023-02-17T01:31:46;100883.88;;;0.92;63.26
42067;BME280;27734;47.028;28.820;2023-02-17T01:34:17;100881.82;;;0.88;63.02
42067;BME280;27734;47.028;28.820;2023-02-17T01:36:48;100882.34;;;0.84;62.94
42067;BME280;27734;47.028;28.820;2023-02-17T01:39:19;100881.20;;;0.80;63.31
42067;BME280;27734;47.028;28.820;2023-02-17T01:41:51;100884.67;;;0.81;63.31
42067;BME280;27734;47.028;28.820;2023-02-17T01:44:24;100879.63;;;0.82;63.99
42067;BME280;27734;47.028;28.820;2023-02-17T01:46:56;100879.39;;;0.79;63.71
42067;BME280;27734;47.028;28.820;2023-02-17T01:49:32;100883.41;;;0.76;63.79
42067;BME280;27734;47.028;28.820;2023-02-17T01:52:09;100881.22;;;0.70;64.37
42067;BME280;27734;47.028;28.820;2023-02-17T01:54:46;100874.79;;;0.65;64.28
42067;BME280;27734;47.028;28.820;2023-02-17T01:57:22;100882.16;;;0.60;65.19
42067;BME280;27734;47.028;28.820;2023-02-17T01:59:55;100880.90;;;0.55;64.60
42067;BME280;27734;47.028;28.820;2023-02-17T02:02:27;100876.38;;;0.52;65.45
42067;BME280;27734;47.028;28.820;2023-02-17T02:05:00;100876.00;;;0.48;64.93
42067;BME280;27734;47.028;28.820;2023-02-17T02:07:36;100873.54;;;0.49;65.36
42067;BME280;27734;47.028;28.820;2023-02-17T02:10:10;100876.00;;;0.48;65.42
42067;BME280;27734;47.028;28.820;2023-02-17T02:12:43;100877.56;;;0.46;65.49
42067;BME280;27734;47.028;28.820;2023-02-17T02:15:16;100866.98;;;0.43;65.83
42067;BME280;27734;47.028;28.820;2023-02-17T02:17:58;100860.80;;;0.41;65.30
42067;BME280;27734;47.028;28.820;2023-02-17T02:20:39;100871.13;;;0.41;65.88
42067;BME280;27734;47.028;28.820;2023-02-17T02:23:35;100875.37;;;0.40;65.43
42067;BME280;27734;47.028;28.820;2023-02-17T02:26:58;100859.88;;;0.40;65.65
42067;BME280;27734;47.028;28.820;2023-02-17T02:29:59;100870.45;;;0.43;65.54
42067;BME280;27734;47.028;28.820;2023-02-17T02:32:47;100865.67;;;0.48;65.84
42067;BME280;27734;47.028;28.820;2023-02-17T02:35:24;100859.98;;;0.52;65.83
42067;BME280;27734;47.028;28.820;2023-02-17T02:38:01;100862.27;;;0.59;65.89
42067;BME280;27734;47.028;28.820;2023-02-17T02:40:39;100858.41;;;0.64;66.04
42067;BME280;27734;47.028;28.820;2023-02-17T02:43:11;100853.73;;;0.70;65.44
42067;BME280;27734;47.028;28.820;2023-02-17T02:45:43;100860.16;;;0.76;65.41
42067;BME280;27734;47.028;28.820;2023-02-17T02:48:14;100860.53;;;0.80;64.95
42067;BME280;27734;47.028;28.820;2023-02-17T02:50:56;100861.03;;;0.86;65.20
42067;BME280;27734;47.028;28.820;2023-02-17T02:54:02;100866.56;;;0.91;65.44
42067;BME280;27734;47.028;28.820;2023-02-17T02:59:51;100858.81;;;0.91;65.06
42067;BME280;27734;47.028;28.820;2023-02-17T03:02:32;100863.33;;;0.94;64.94
42067;BME280;27734;47.028;28.820;2023-02-17T03:05:11;100871.45;;;0.98;65.17
42067;BME280;27734;47.028;28.820;2023-02-17T03:07:49;100861.48;;;1.03;65.16
42067;BME280;27734;47.028;28.820;2023-02-17T03:10:24;100865.33;;;1.08;65.13
42067;BME280;27734;47.028;28.820;2023-02-17T03:12:56;100865.45;;;1.10;64.97
42067;BME280;27734;47.028;28.820;2023-02-17T03:15:30;100862.86;;;1.10;65.33
42067;BME280;27734;47.028;28.820;2023-02-17T03:18:03;100862.74;;;1.08;65.14
42067;BME280;27734;47.028;28.820;2023-02-17T03:20:38;100858.22;;;1.05;65.35
42067;BME280;27734;47.028;28.820;2023-02-17T03:23:12;100861.61;;;1.04;65.25
42067;BME280;27734;47.028;28.820;2023-02-17T03:25:43;100858.78;;;1.01;65.28
42067;BME280;27734;47.028;28.820;2023-02-17T03:28:16;100860.56;;;1.02;65.21
42067;BME280;27734;47.028;28.820;2023-02-17T03:30:48;100864.28;;;1.06;65.32
42067;BME280;27734;47.028;28.820;2023-02-17T03:33:19;100855.75;;;1.07;65.34
42067;BME280;27734;47.028;28.820;2023-02-17T03:35:50;100861.05;;;1.08;65.30
42067;BME280;27734;47.028;28.820;2023-02-17T03:38:22;100849.13;;;1.11;65.39
42067;BME280;27734;47.028;28.820;2023-02-17T03:40:53;100858.70;;;1.12;65.56
42067;BME280;27734;47.028;28.820;2023-02-17T03:43:24;100857.13;;;1.14;65.36
42067;BME280;27734;47.028;28.820;2023-02-17T03:45:56;100858.05;;;1.14;65.32
42067;BME280;27734;47.028;28.820;2023-02-17T03:48:27;100856.48;;;1.16;65.67
42067;BME280;27734;47.028;28.820;2023-02-17T03:50:58;100856.61;;;1.18;65.66
42067;BME280;27734;47.028;28.820;2023-02-17T03:53:39;100851.56;;;1.19;65.57
42067;BME280;27734;47.028;28.820;2023-02-17T03:56:11;100861.01;;;1.19;65.49
42067;BME280;27734;47.028;28.820;2023-02-17T03:58:43;100855.72;;;1.17;65.10
42067;BME280;27734;47.028;28.820;2023-02-17T04:01:15;100856.48;;;1.16;65.79
42067;BME280;27734;47.028;28.820;2023-02-17T04:03:47;100858.95;;;1.15;65.66
42067;BME280;27734;47.028;28.820;2023-02-17T04:06:18;100858.70;;;1.12;65.73
42067;BME280;27734;47.028;28.820;2023-02-17T04:08:49;100853.30;;;1.08;65.81
42067;BME280;27734;47.028;28.820;2023-02-17T04:11:20;100858.47;;;1.08;65.94
42067;BME280;27734;47.028;28.820;2023-02-17T04:13:52;100856.52;;;1.06;65.41
42067;BME280;27734;47.028;28.820;2023-02-17T04:16:23;100853.05;;;1.05;65.78
42067;BME280;27734;47.028;28.820;2023-02-17T04:18:54;100850.34;;;1.04;65.91
42067;BME280;27734;47.028;28.820;2023-02-17T04:21:26;100854.74;;;1.05;65.58
42067;BME280;27734;47.028;28.820;2023-02-17T04:23:58;100854.86;;;1.06;66.02
42067;BME280;27734;47.028;28.820;2023-02-17T04:26:30;100854.06;;;1.07;65.82
42067;BME280;27734;47.028;28.820;2023-02-17T04:29:04;100848.13;;;1.08;65.60
42067;BME280;27734;47.028;28.820;2023-02-17T04:31:34;100849.94;;;1.10;65.45
42067;BME280;27734;47.028;28.820;2023-02-17T04:34:05;100857.57;;;1.08;65.76
42067;BME280;27734;47.028;28.820;2023-02-17T04:36:36;100853.94;;;1.06;65.76
42067;BME280;27734;47.028;28.820;2023-02-17T04:39:07;100862.50;;;1.05;66.19
42067;BME280;27734;47.028;28.820;2023-02-17T04:41:39;100853.73;;;1.03;65.88
42067;BME280;27734;47.028;28.820;2023-02-17T04:44:10;100851.02;;;1.01;66.03
42067;BME280;27734;47.028;28.820;2023-02-17T04:46:41;100857.09;;;1.02;66.08
42067;BME280;27734;47.028;28.820;2023-02-17T04:49:12;100857.73;;;0.99;65.97
42067;BME280;27734;47.028;28.820;2023-02-17T04:51:44;100861.77;;;0.96;66.43
42067;BME280;27734;47.028;28.820;2023-02-17T04:54:15;100869.15;;;0.91;66.39
42067;BME280;27734;47.028;28.820;2023-02-17T04:56:46;100872.25;;;0.87;66.49
42067;BME280;27734;47.028;28.820;2023-02-17T04:59:17;100867.89;;;0.86;66.33
42067;BME280;27734;47.028;28.820;2023-02-17T05:01:49;100875.64;;;0.86;66.54
42067;BME280;27734;47.028;28.820;2023-02-17T05:04:20;100872.25;;;0.87;66.82
42067;BME280;27734;47.028;28.820;2023-02-17T05:06:51;100878.59;;;0.91;66.70
42067;BME280;27734;47.028;28.820;2023-02-17T05:09:22;100883.08;;;0.93;66.98
42067;BME280;27734;47.028;28.820;2023-02-17T05:11:54;100879.20;;;0.98;67.53
42067;BME280;27734;47.028;28.820;2023-02-17T05:14:26;100880.22;;;1.00;67.46
42067;BME280;27734;47.028;28.820;2023-02-17T05:16:57;100878.89;;;1.05;67.61
42067;BME280;27734;47.028;28.820;2023-02-17T05:19:28;100886.38;;;1.13;67.26
42067;BME280;27734;47.028;28.820;2023-02-17T05:21:59;100884.27;;;1.19;67.74
42067;BME280;27734;47.028;28.820;2023-02-17T05:24:31;100887.34;;;1.25;67.33
42067;BME280;27734;47.028;28.820;2023-02-17T05:27:02;100893.00;;;1.31;67.19
42067;BME280;27734;47.028;28.820;2023-02-17T05:29:34;100889.08;;;1.36;67.62
42067;BME280;27734;47.028;28.820;2023-02-17T05:32:05;100889.56;;;1.42;67.08
42067;BME280;27734;47.028;28.820;2023-02-17T05:34:37;100894.56;;;1.51;67.18
42067;BME280;27734;47.028;28.820;2023-02-17T05:37:08;100893.34;;;1.58;67.55
42067;BME280;27734;47.028;28.820;2023-02-17T05:39:40;100894.72;;;1.65;66.98
42067;BME280;27734;47.028;28.820;2023-02-17T05:42:11;100891.59;;;1.69;67.43
42067;BME280;27734;47.028;28.820;2023-02-17T05:44:43;100901.50;;;1.74;67.35
42067;BME280;27734;47.028;28.820;2023-02-17T05:47:14;100900.96;;;1.78;67.13
42067;BME280;27734;47.028;28.820;2023-02-17T05:49:46;100902.20;;;1.84;67.52
42067;BME280;27734;47.028;28.820;2023-02-17T05:52:17;100905.27;;;1.90;67.52
42067;BME280;27734;47.028;28.820;2023-02-17T05:54:48;100903.39;;;1.99;68.42
42067;BME280;27734;47.028;28.820;2023-02-17T05:57:20;100907.72;;;2.10;67.87
42067;BME280;27734;47.028;28.820;2023-02-17T05:59:51;100909.66;;;2.25;67.88
42067;BME280;27734;47.028;28.820;2023-02-17T06:02:22;100903.70;;;2.38;68.24
42067;BME280;27734;47.028;28.820;2023-02-17T06:04:54;100901.91;;;2.48;67.70
42067;BME280;27734;47.028;28.820;2023-02-17T06:07:25;100902.59;;;2.58;67.33
42067;BME280;27734;47.028;28.820;2023-02-17T06:09:56;100908.34;;;2.65;67.79
42067;BME280;27734;47.028;28.820;2023-02-17T06:12:28;100908.91;;;2.73;66.86
42067;BME280;27734;47.028;28.820;2023-02-17T06:14:59;100901.70;;;2.81;66.92
42067;BME280;27734;47.028;28.820;2023-02-17T06:17:30;100910.27;;;2.92;67.17
42067;BME280;27734;47.028;28.820;2023-02-17T06:20:02;100910.01;;;3.00;66.98
42067;BME280;27734;47.028;28.820;2023-02-17T06:22:34;100915.19;;;3.12;67.07
42067;BME280;27734;47.028;28.820;2023-02-17T06:25:05;100916.97;;;3.25;66.81
42067;BME280;27734;47.028;28.820;2023-02-17T06:27:37;100913.44;;;3.36;67.71
42067;BME280;27734;47.028;28.820;2023-02-17T06:30:10;100912.42;;;3.46;67.67
42067;BME280;27734;47.028;28.820;2023-02-17T06:32:40;100907.87;;;3.55;66.79
42067;BME280;27734;47.028;28.820;2023-02-17T06:35:12;100914.50;;;3.64;66.69
42067;BME280;27734;47.028;28.820;2023-02-17T06:37:46;100915.25;;;3.74;66.67
42067;BME280;27734;47.028;28.820;2023-02-17T06:40:19;100908.98;;;3.84;67.23
42067;BME280;27734;47.028;28.820;2023-02-17T06:42:51;100904.33;;;3.92;66.46
42067;BME280;27734;47.028;28.820;2023-02-17T06:45:22;100905.53;;;3.97;67.18
42067;BME280;27734;47.028;28.820;2023-02-17T06:47:54;100902.47;;;4.03;66.92
42067;BME280;27734;47.028;28.820;2023-02-17T06:50:25;100906.38;;;4.09;66.79
42067;BME280;27734;47.028;28.820;2023-02-17T06:52:57;100907.71;;;4.16;66.40
42067;BME280;27734;47.028;28.820;2023-02-17T06:55:29;100903.11;;;4.25;66.59
42067;BME280;27734;47.028;28.820;2023-02-17T06:58:00;100908.34;;;4.39;66.82
42067;BME280;27734;47.028;28.820;2023-02-17T07:00:32;100911.97;;;4.54;67.08
42067;BME280;27734;47.028;28.820;2023-02-17T07:03:03;100917.30;;;4.69;66.44
42067;BME280;27734;47.028;28.820;2023-02-17T07:05:36;100905.59;;;4.76;66.21
42067;BME280;27734;47.028;28.820;2023-02-17T07:08:10;100914.78;;;4.84;65.79
42067;BME280;27734;47.028;28.820;2023-02-17T07:10:42;100912.88;;;4.95;66.31
42067;BME280;27734;47.028;28.820;2023-02-17T07:13:13;100908.97;;;5.01;65.82
42067;BME280;27734;47.028;28.820;2023-02-17T07:15:44;100898.95;;;5.08;65.44
42067;BME280;27734;47.028;28.820;2023-02-17T07:18:16;100902.97;;;5.16;65.33
42067;BME280;27734;47.028;28.820;2023-02-17T07:20:48;100901.75;;;5.24;65.20
42067;BME280;27734;47.028;28.820;2023-02-17T07:23:19;100903.91;;;5.31;64.81
42067;BME280;27734;47.028;28.820;2023-02-17T07:25:50;100908.91;;;5.42;64.72
42067;BME280;27734;47.028;28.820;2023-02-17T07:28:22;100900.79;;;5.50;65.10
42067;BME280;27734;47.028;28.820;2023-02-17T07:30:54;100910.06;;;5.60;65.15
42067;BME280;27734;47.028;28.820;2023-02-17T07:33:28;100911.42;;;5.68;64.87
42067;BME280;27734;47.028;28.820;2023-02-17T07:36:03;100913.17;;;5.83;65.37
42067;BME280;27734;47.028;28.820;2023-02-17T07:38:36;100910.65;;;5.98;65.19
42067;BME280;27734;47.028;28.820;2023-02-17T07:41:13;100901.86;;;6.10;65.04
42067;BME280;27734;47.028;28.820;2023-02-17T07:43:52;100905.20;;;6.23;64.59
42067;BME280;27734;47.028;28.820;2023-02-17T07:46:29;100910.16;;;6.33;63.80
42067;BME280;27734;47.028;28.820;2023-02-17T07:49:07;100902.05;;;6.43;63.93
42067;BME280;27734;47.028;28.820;2023-02-17T07:51:45;100911.42;;;6.55;63.70
42067;BME280;27734;47.028;28.820;2023-02-17T07:54:18;100901.71;;;6.67;63.13
42067;BME280;27734;47.028;28.820;2023-02-17T07:56:51;100903.22;;;6.78;63.19
42067;BME280;27734;47.028;28.820;2023-02-17T07:59:25;100892.30;;;6.86;62.51
42067;BME280;27734;47.028;28.820;2023-02-17T08:02:01;100895.70;;;6.99;61.76
42067;BME280;27734;47.028;28.820;2023-02-17T08:04:34;100896.96;;;7.06;62.25
42067;BME280;27734;47.028;28.820;2023-02-17T08:07:07;100898.36;;;7.16;61.43
42067;BME280;27734;47.028;28.820;2023-02-17T08:09:41;100896.98;;;7.23;61.43
42067;BME280;27734;47.028;28.820;2023-02-17T08:12:34;100897.49;;;7.32;61.32
42067;BME280;27734;47.028;28.820;2023-02-17T08:15:26;100897.20;;;7.42;61.22
42067;BME280;27734;47.028;28.820;2023-02-17T08:22:07;100895.25;;;7.71;60.82
42067;BME280;27734;47.028;28.820;2023-02-17T08:24:42;100884.56;;;7.83;60.47
42067;BME280;27734;47.028;28.820;2023-02-17T08:27:16;100893.12;;;7.97;59.44
42067;BME280;27734;47.028;28.820;2023-02-17T08:29:52;100894.73;;;8.11;59.72
42067;BME280;27734;47.028;28.820;2023-02-17T08:32:23;100883.11;;;8.22;59.32
42067;BME280;27734;47.028;28.820;2023-02-17T08:35:00;100885.39;;;8.33;58.80
42067;BME280;27734;47.028;28.820;2023-02-17T08:37:33;100896.32;;;8.42;57.86
42067;BME280;27734;47.028;28.820;2023-02-17T08:40:08;100890.74;;;8.52;57.96
42067;BME280;27734;47.028;28.820;2023-02-17T08:42:42;100886.89;;;8.62;58.93
42067;BME280;27734;47.028;28.820;2023-02-17T08:45:16;100887.42;;;8.73;58.21
42067;BME280;27734;47.028;28.820;2023-02-17T08:47:49;100896.31;;;8.76;56.76
42067;BME280;27734;47.028;28.820;2023-02-17T08:50:23;100895.43;;;8.76;56.55
42067;BME280;27734;47.028;28.820;2023-02-17T08:52:56;100900.51;;;8.73;56.19
42067;BME280;27734;47.028;28.820;2023-02-17T08:55:29;100881.20;;;8.71;56.01
42067;BME280;27734;47.028;28.820;2023-02-17T08:58:00;100881.66;;;8.80;55.78
42067;BME280;27734;47.028;28.820;2023-02-17T09:00:33;100904.84;;;8.90;55.24
42067;BME280;27734;47.028;28.820;2023-02-17T09:03:11;100890.25;;;8.95;55.26
42067;BME280;27734;47.028;28.820;2023-02-17T09:06:06;100897.89;;;9.09;55.34
42067;BME280;27734;47.028;28.820;2023-02-17T09:08:45;100894.72;;;9.16;54.67
42067;BME280;27734;47.028;28.820;2023-02-17T09:11:19;100888.59;;;9.15;53.96
42067;BME280;27734;47.028;28.820;2023-02-17T09:13:52;100903.41;;;9.15;55.20
42067;BME280;27734;47.028;28.820;2023-02-17T09:16:24;100892.31;;;9.21;54.30
42067;BME280;27734;47.028;28.820;2023-02-17T09:18:56;100888.29;;;9.27;54.75
42067;BME280;27734;47.028;28.820;2023-02-17T09:21:29;100890.42;;;9.36;55.50
42067;BME280;27734;47.028;28.820;2023-02-17T09:24:05;100899.48;;;9.43;53.75
42067;BME280;27734;47.028;28.820;2023-02-17T09:26:39;100893.47;;;9.45;54.04
42067;BME280;27734;47.028;28.820;2023-02-17T09:29:17;100883.06;;;9.47;53.87
42067;BME280;27734;47.028;28.820;2023-02-17T09:31:50;100890.85;;;9.45;54.32
42067;BME280;27734;47.028;28.820;2023-02-17T09:34:23;100893.47;;;9.45;53.22
42067;BME280;27734;47.028;28.820;2023-02-17T09:36:59;100897.08;;;9.47;52.69
42067;BME280;27734;47.028;28.820;2023-02-17T09:39:31;100879.00;;;9.53;53.39
42067;BME280;27734;47.028;28.820;2023-02-17T09:42:04;100879.06;;;9.55;52.70
42067;BME280;27734;47.028;28.820;2023-02-17T09:44:42;100880.27;;;9.62;52.71
42067;BME280;27734;47.028;28.820;2023-02-17T09:47:17;100886.60;;;9.67;51.37
42067;BME280;27734;47.028;28.820;2023-02-17T09:49:59;100872.19;;;9.77;52.63
42067;BME280;27734;47.028;28.820;2023-02-17T09:52:39;100877.14;;;9.70;51.16
42067;BME280;27734;47.028;28.820;2023-02-17T09:55:19;100860.19;;;9.62;52.29
42067;BME280;27734;47.028;28.820;2023-02-17T09:57:57;100866.25;;;9.61;52.35
42067;BME280;27734;47.028;28.820;2023-02-17T10:00:34;100864.34;;;9.57;52.15
42067;BME280;27734;47.028;28.820;2023-02-17T10:03:13;100856.62;;;9.60;52.39
42067;BME280;27734;47.028;28.820;2023-02-17T10:05:52;100845.36;;;9.63;52.43
42067;BME280;27734;47.028;28.820;2023-02-17T10:08:38;100836.00;;;9.68;51.95
42067;BME280;27734;47.028;28.820;2023-02-17T10:11:17;100843.15;;;9.72;51.78
42067;BME280;27734;47.028;28.820;2023-02-17T10:13:54;100834.47;;;9.73;52.25
42067;BME280;27734;47.028;28.820;2023-02-17T10:16:30;100836.27;;;9.74;52.61
42067;BME280;27734;47.028;28.820;2023-02-17T10:19:07;100824.19;;;9.78;52.37
42067;BME280;27734;47.028;28.820;2023-02-17T10:21:45;100830.39;;;9.80;51.96
42067;BME280;27734;47.028;28.820;2023-02-17T10:24:21;100827.02;;;9.82;52.32
42067;BME280;27734;47.028;28.820;2023-02-17T10:27:02;100827.90;;;9.83;50.94
42067;BME280;27734;47.028;28.820;2023-02-17T10:29:47;100817.55;;;9.86;51.48
42067;BME280;27734;47.028;28.820;2023-02-17T10:32:24;100828.23;;;9.90;51.42
42067;BME280;27734;47.028;28.820;2023-02-17T10:35:07;100809.20;;;9.95;51.68
42067;BME280;27734;47.028;28.820;2023-02-17T10:37:46;100826.41;;;10.09;50.27
42067;BME280;27734;47.028;28.820;2023-02-17T10:40:23;100818.31;;;10.24;50.85
42067;BME280;27734;47.028;28.820;2023-02-17T10:45:47;100817.25;;;10.40;50.09
42067;BME280;27734;47.028;28.820;2023-02-17T10:48:48;100805.21;;;10.45;50.36
42067;BME280;27734;47.028;28.820;2023-02-17T10:51:24;100800.03;;;10.47;50.20
42067;BME280;27734;47.028;28.820;2023-02-17T10:54:10;100801.95;;;10.51;49.61
42067;BME280;27734;47.028;28.820;2023-02-17T10:59:57;100801.13;;;10.52;49.59
42067;BME280;27734;47.028;28.820;2023-02-17T11:02:35;100802.91;;;10.53;48.29
42067;BME280;27734;47.028;28.820;2023-02-17T11:05:29;100802.02;;;10.52;48.03
42067;BME280;27734;47.028;28.820;2023-02-17T11:08:06;100798.60;;;10.55;48.21
42067;BME280;27734;47.028;28.820;2023-02-17T11:10:41;100786.46;;;10.57;48.64
42067;BME280;27734;47.028;28.820;2023-02-17T11:13:32;100791.77;;;10.58;48.12
42067;BME280;27734;47.028;28.820;2023-02-17T11:16:32;100787.47;;;10.60;48.54
42067;BME280;27734;47.028;28.820;2023-02-17T11:22:37;100782.47;;;10.67;48.16
42067;BME280;27734;47.028;28.820;2023-02-17T11:26:06;100788.02;;;10.74;47.93
42067;BME280;27734;47.028;28.820;2023-02-17T11:29:05;100787.26;;;10.77;47.13
42067;BME280;27734;47.028;28.820;2023-02-17T11:31:56;100771.57;;;10.78;47.17
42067;BME280;27734;47.028;28.820;2023-02-17T11:34:58;100771.81;;;10.85;47.93
42067;BME280;27734;47.028;28.820;2023-02-17T11:38:13;100768.56;;;10.92;48.11
42067;BME280;27734;47.028;28.820;2023-02-17T11:40:55;100768.86;;;11.00;48.26
42067;BME280;27734;47.028;28.820;2023-02-17T11:43:29;100770.72;;;11.02;47.92
42067;BME280;27734;47.028;28.820;2023-02-17T11:46:26;100758.66;;;11.07;47.73
42067;BME280;27734;47.028;28.820;2023-02-17T11:49:20;100771.61;;;11.03;46.03
42067;BME280;27734;47.028;28.820;2023-02-17T11:52:09;100764.41;;;10.97;46.97
42067;BME280;27734;47.028;28.820;2023-02-17T11:54:54;100761.78;;;10.97;46.48
42067;BME280;27734;47.028;28.820;2023-02-17T11:57:37;100767.86;;;10.96;46.36
42067;BME280;27734;47.028;28.820;2023-02-17T12:00:18;100758.30;;;10.98;46.99
42067;BME280;27734;47.028;28.820;2023-02-17T12:03:19;100767.21;;;11.02;46.64
42067;BME280;27734;47.028;28.820;2023-02-17T12:06:06;100775.09;;;11.02;46.06
42067;BME280;27734;47.028;28.820;2023-02-17T12:08:56;100759.98;;;10.96;45.95
42067;BME280;27734;47.028;28.820;2023-02-17T12:11:39;100766.68;;;10.88;46.18
42067;BME280;27734;47.028;28.820;2023-02-17T12:14:26;100767.56;;;10.88;46.46
42067;BME280;27734;47.028;28.820;2023-02-17T12:17:11;100766.56;;;10.85;46.56
42067;BME280;27734;47.028;28.820;2023-02-17T12:19:56;100766.44;;;10.82;46.22
42067;BME280;27734;47.028;28.820;2023-02-17T12:22:37;100769.89;;;10.81;46.17
42067;BME280;27734;47.028;28.820;2023-02-17T12:25:34;100772.45;;;10.79;46.08
42067;BME280;27734;47.028;28.820;2023-02-17T12:31:44;100765.28;;;10.75;46.46
42067;BME280;27734;47.028;28.820;2023-02-17T12:34:30;100771.57;;;10.78;46.25
42067;BME280;27734;47.028;28.820;2023-02-17T12:37:22;100767.20;;;10.79;45.56
42067;BME280;27734;47.028;28.820;2023-02-17T12:40:00;100765.34;;;10.76;46.02
42067;BME280;27734;47.028;28.820;2023-02-17T12:42:37;100764.52;;;10.77;46.13
42067;BME280;27734;47.028;28.820;2023-02-17T12:45:22;100757.41;;;10.75;46.42
42067;BME280;27734;47.028;28.820;2023-02-17T12:47:58;100759.15;;;10.74;46.29
42067;BME280;27734;47.028;28.820;2023-02-17T12:50:41;100760.89;;;10.74;45.11
42067;BME280;27734;47.028;28.820;2023-02-17T12:53:18;100762.66;;;10.75;46.21
42067;BME280;27734;47.028;28.820;2023-02-17T12:55:56;100755.64;;;10.74;45.97
42067;BME280;27734;47.028;28.820;2023-02-17T12:58:29;100751.22;;;10.73;45.85
42067;BME280;27734;47.028;28.820;2023-02-17T13:01:11;100743.16;;;10.68;45.24
42067;BME280;27734;47.028;28.820;2023-02-17T13:03:46;100746.61;;;10.67;45.92
42067;BME280;27734;47.028;28.820;2023-02-17T13:06:26;100743.80;;;10.63;45.67
42067;BME280;27734;47.028;28.820;2023-02-17T13:09:19;100749.97;;;10.63;46.10
42067;BME280;27734;47.028;28.820;2023-02-17T13:12:29;100744.72;;;10.63;45.71
42067;BME280;27734;47.028;28.820;2023-02-17T13:15:05;100740.36;;;10.64;45.88
42067;BME280;27734;47.028;28.820;2023-02-17T13:17:53;100728.91;;;10.61;45.52
42067;BME280;27734;47.028;28.820;2023-02-17T13:20:36;100739.35;;;10.60;45.71
42067;BME280;27734;47.028;28.820;2023-02-17T13:23:38;100729.80;;;10.62;45.88
42067;BME280;27734;47.028;28.820;2023-02-17T13:26:29;100728.85;;;10.60;45.46
42067;BME280;27734;47.028;28.820;2023-02-17T13:29:32;100733.13;;;10.58;45.56
42067;BME280;27734;47.028;28.820;2023-02-17T13:32:25;100726.99;;;10.57;46.05
42067;BME280;27734;47.028;28.820;2023-02-17T13:35:02;100732.30;;;10.59;45.73
42067;BME280;27734;47.028;28.820;2023-02-17T13:37:42;100737.43;;;10.56;45.62
42067;BME280;27734;47.028;28.820;2023-02-17T13:40:43;100740.78;;;10.52;45.25
42067;BME280;27734;47.028;28.820;2023-02-17T13:43:20;100733.67;;;10.49;45.67
42067;BME280;27734;47.028;28.820;2023-02-17T13:46:15;100735.36;;;10.47;45.83
42067;BME280;27734;47.028;28.820;2023-02-17T13:48:59;100736.12;;;10.45;45.91
42067;BME280;27734;47.028;28.820;2023-02-17T13:51:34;100731.69;;;10.43;45.78
42067;BME280;27734;47.028;28.820;2023-02-17T13:54:10;100740.42;;;10.42;45.72
42067;BME280;27734;47.028;28.820;2023-02-17T13:56:51;100736.94;;;10.43;45.45